Tyler Pounds Regional Airport
KTYR : now visible

Airfield :











YOU CAN JOIN US ON...

 
LOGIN :

Register | Disclaimer

   EN    FR    IT 

 









Legend :    VFR   Marginal VFR   IFR   Intensive IFR   Very Intensive IFR
Visi :
Ceiling :
>= 8 km
>= 3000ft
5 to 8 km
1000 to 3000 ft
1500m to 5 km
500 to 1000 ft
800 to 1500m
200 to 500 ft
< 800m
< 200 ft
Symbols :   Thunderstorms  Fog  Heavy snow  Heavy precipitations  Wind > 20 kt







- Airport Elevation : 544 ft
- IATA code : TYR


KTYR - Tyler Pounds Regional

CURRENT METAR :
  • 161243Z 04007KT 6SM +TSRA BR BKN032 BKN048 OVC070 19/19 A2996 RMK AO2 LTG DSNT ALQDS TSB01 P0100 T01940189

EXPIRED METARs :
  • 161231Z 03010KT 3SM +TSRA BR BKN024 OVC046 19/19 A2996 RMK AO2 LTG DSNT ALQDS TSB01 P0094 T01940189
  • 161220Z 04013G18KT 1 3/4SM +TSRA BR OVC018 19/19 A2995 RMK AO2 LTG DSNT ALQDS TSB01 P0078 T01940189
  • 161208Z 03010KT 2 1/2SM +TSRA BR FEW004 OVC020 19/19 A2996 RMK AO2 LTG DSNT NW-NE TSB01 P0036 T01940189
  • 161201Z 01010KT 1 3/4SM +TSRA BR FEW004 OVC015 19/19 A2995 RMK AO2 LTG DSNT ALQDS TSB01 P0020 T01940189
  • 161153Z 02009KT 1 3/4SM VCTS +RA BR SCT004 OVC011 19/19 A2995 RMK AO2 LTG DSNT SW-N RAB1056 SLP134 P0143 60143 70143 T01940189 10267 20189 53018
  • 161134Z 33008G16KT 1 3/4SM VCTS +RA BR SCT004 SCT008 OVC011 19/19 A2995 RMK AO2 LTG DSNT W-NE RAB1056 PRESRR P0084 T01940189
  • 161117Z 02010KT 2SM VCTS +RA BR SCT005 BKN009 OVC019 19/19 A2993 RMK AO2 LTG DSNT W-N RAB1056 P0034 T01940189
  • 161127Z 36013KT 1 3/4SM VCTS +RA BR SCT004 OVC009 19/19 A2994 RMK AO2 LTG DSNT W-NE RAB1056 P0063 T01890189
  • 161107Z AUTO 01014G23KT 6SM +RA BR FEW009 BKN014 OVC019 20/18 A2994 RMK AO2 LTG DSNT W-N RAB1056 P0009 T02000183
  • 161100Z AUTO 01016G26KT 10SM -RA OVC016 21/18 A2992 RMK AO2 LTG DSNT W-N RAB1056 P0000 T02110178
  • 161053Z AUTO 36017G26KT 10SM OVC014 23/18 A2992 RMK AO2 PK WND 35026/1052 LTG DSNT W-N SLP124 T02280183
  • 161032Z AUTO 02007G15KT 10SM BKN012 OVC019 24/19 A2991 RMK AO2 LTG DSNT N AND NW T02390189
  • 161017Z AUTO 35008KT 10SM SCT015 BKN022 OVC095 25/23 A2991 RMK AO2 LTG DSNT N PRESRR T02500228
  • 160953Z AUTO 17006KT 10SM FEW023 BKN095 25/23 A2989 RMK AO2 SLP111 T02500228

TAF KTYR
Valid from the 16 at 12:00 until the 17 at 12:00 UTC


161146Z 1612/1712 36013G20KT 1 1/2SM +RA BR SCT004 OVC009
TEMPO 1612/1616 VRB10G20KT 6SM -TSRA BKN023CB OVC030
FM161600 20013G20KT P6SM VCTS BKN050CB
FM170000 17013KT P6SM SCT250
FM170600 18014KT P6SM VCTS BKN050CB OVC100
KZFW FIR / North America



MET'MAP, your aeronautical weather chart ! - Copyright ORBIFLY December 2007 - Disclaimer

ORBIFLY MET'MAP TEAM :

Programming & Development : Alexandra Zaïnal
Concept & Development : Baudouin d'Aumeries
Co-Development & Prog : Marc-Olivier Méhu
Technical & hardware support : Manuel Goepfert

Contact : metmap@orbifly.com




SOURCES & CREDITS :

   NOAA       Earth
Advisory